createdAt,value
2023-10-10T00:01:45.811Z,14.48
2023-10-10T00:04:13.536Z,14.48
2023-10-10T00:06:42.094Z,14.50
2023-10-10T00:09:13.267Z,14.51
2023-10-10T00:11:42.016Z,14.54
2023-10-10T00:14:18.916Z,14.56
2023-10-10T00:16:49.122Z,14.58
2023-10-10T00:19:22.081Z,14.65
2023-10-10T00:21:51.696Z,14.65
2023-10-10T00:24:22.255Z,14.63
2023-10-10T00:26:49.851Z,14.62
2023-10-10T00:29:19.955Z,14.61
2023-10-10T00:31:56.548Z,14.63
2023-10-10T00:34:26.652Z,14.64
2023-10-10T00:36:53.832Z,14.68
2023-10-10T00:39:20.892Z,14.74
2023-10-10T00:41:50.902Z,14.77
2023-10-10T00:44:18.967Z,14.80
2023-10-10T00:46:49.213Z,14.91
2023-10-10T00:49:18.444Z,14.93
2023-10-10T00:51:48.934Z,14.96
2023-10-10T00:54:23.051Z,14.96
2023-10-10T00:56:55.505Z,14.98
2023-10-10T00:59:36.170Z,15.03
2023-10-10T01:02:07.224Z,15.02
2023-10-10T01:04:39.177Z,15.06
2023-10-10T01:07:09.461Z,15.03
2023-10-10T01:09:57.029Z,15.05
2023-10-10T01:12:30.265Z,15.03
2023-10-10T01:14:58.666Z,14.97
2023-10-10T01:17:32.356Z,14.89
2023-10-10T01:20:16.353Z,14.83
2023-10-10T01:22:48.075Z,14.74
2023-10-10T01:25:33.020Z,14.72
2023-10-10T01:28:07.078Z,14.71
2023-10-10T01:31:00.597Z,14.63
2023-10-10T01:33:38.142Z,14.57
2023-10-10T01:36:31.325Z,14.52
2023-10-10T01:39:01.097Z,14.49
2023-10-10T01:41:41.447Z,14.49
2023-10-10T01:44:14.026Z,14.47
2023-10-10T01:46:42.320Z,14.45
2023-10-10T01:49:30.779Z,14.43
2023-10-10T01:52:00.863Z,14.34
2023-10-10T01:54:47.465Z,14.27
2023-10-10T01:57:23.660Z,14.21
2023-10-10T01:59:53.229Z,14.19
2023-10-10T02:02:24.869Z,14.21
2023-10-10T02:04:57.179Z,14.26
2023-10-10T02:07:32.445Z,14.31
2023-10-10T02:10:15.533Z,14.33
2023-10-10T02:12:46.795Z,14.36
2023-10-10T02:15:17.029Z,14.42
2023-10-10T02:17:53.059Z,14.42
2023-10-10T02:20:26.395Z,14.42
2023-10-10T02:23:14.321Z,14.40
2023-10-10T02:25:42.526Z,14.43
2023-10-10T02:28:18.315Z,14.43
2023-10-10T02:30:48.940Z,14.39
2023-10-10T02:33:16.029Z,14.41
2023-10-10T02:35:57.258Z,14.39
2023-10-10T02:38:41.425Z,14.38
2023-10-10T02:41:22.954Z,14.34
2023-10-10T02:43:58.249Z,14.34
2023-10-10T02:46:37.166Z,14.37
2023-10-10T02:49:14.548Z,14.38
2023-10-10T02:51:44.432Z,14.44
2023-10-10T02:54:41.938Z,14.53
2023-10-10T02:57:27.275Z,14.57
2023-10-10T03:00:17.013Z,14.64
2023-10-10T03:02:51.724Z,14.66
2023-10-10T03:05:40.484Z,14.69
2023-10-10T03:08:14.020Z,14.71
2023-10-10T03:10:48.137Z,14.72
2023-10-10T03:13:29.963Z,14.69
2023-10-10T03:16:20.761Z,14.72
2023-10-10T03:19:14.297Z,14.75
2023-10-10T03:21:44.393Z,14.70
2023-10-10T03:24:23.953Z,14.71
2023-10-10T03:26:51.237Z,14.72
2023-10-10T03:29:28.338Z,14.69
2023-10-10T03:32:28.149Z,14.70
2023-10-10T03:34:58.788Z,14.69
2023-10-10T03:37:28.774Z,14.66
2023-10-10T03:39:58.824Z,14.67
2023-10-10T03:42:44.983Z,14.66
2023-10-10T03:45:30.948Z,14.67
2023-10-10T03:48:16.785Z,14.70
2023-10-10T03:51:03.921Z,14.69
2023-10-10T03:53:50.267Z,14.70
2023-10-10T03:56:37.090Z,14.75
2023-10-10T03:59:24.114Z,14.72
2023-10-10T04:02:11.587Z,14.69
2023-10-10T04:05:03.445Z,14.69
2023-10-10T04:07:54.604Z,14.65
2023-10-10T04:10:39.914Z,14.64
2023-10-10T04:13:26.006Z,14.64
2023-10-10T04:16:11.997Z,14.60
2023-10-10T04:18:57.988Z,14.54
2023-10-10T04:21:43.640Z,14.58
2023-10-10T04:24:29.201Z,14.53
2023-10-10T04:27:14.708Z,14.50
2023-10-10T04:30:00.460Z,14.46
2023-10-10T04:32:46.405Z,14.45
2023-10-10T04:35:32.310Z,14.45
2023-10-10T04:38:18.107Z,14.43
2023-10-10T04:41:03.898Z,14.42
2023-10-10T04:43:51.340Z,14.40
2023-10-10T04:46:38.657Z,14.35
2023-10-10T04:49:24.574Z,14.35
2023-10-10T04:52:10.447Z,14.33
2023-10-10T04:54:55.735Z,14.28
2023-10-10T04:57:41.359Z,14.24
2023-10-10T05:00:27.513Z,14.21
2023-10-10T05:03:13.003Z,14.13
2023-10-10T05:05:58.785Z,14.13
2023-10-10T05:08:44.651Z,14.10
2023-10-10T05:11:30.334Z,14.12
2023-10-10T05:14:16.410Z,14.04
2023-10-10T05:17:01.803Z,14.03
2023-10-10T05:19:47.475Z,14.03
2023-10-10T05:22:32.747Z,14.01
2023-10-10T05:25:00.499Z,13.97
2023-10-10T05:27:31.258Z,13.99
2023-10-10T05:29:58.439Z,13.95
2023-10-10T05:32:28.448Z,13.97
2023-10-10T05:34:57.003Z,14.00
2023-10-10T05:37:29.447Z,14.02
2023-10-10T05:39:59.418Z,13.98
2023-10-10T05:42:35.307Z,13.99
2023-10-10T05:45:08.782Z,13.98
2023-10-10T05:47:37.229Z,13.89
2023-10-10T05:50:04.546Z,13.93
2023-10-10T05:52:32.218Z,13.89
2023-10-10T05:54:59.297Z,13.86
2023-10-10T05:57:26.389Z,13.91
2023-10-10T05:59:53.457Z,13.85
2023-10-10T06:02:23.054Z,13.82
2023-10-10T06:04:52.359Z,13.78
2023-10-10T06:07:19.259Z,13.73
2023-10-10T06:09:46.303Z,13.70
2023-10-10T06:12:15.284Z,13.71
2023-10-10T06:14:43.853Z,13.71
2023-10-10T06:17:10.929Z,13.70
2023-10-10T06:19:40.312Z,13.73
2023-10-10T06:22:10.370Z,13.75
2023-10-10T06:24:38.253Z,13.79
2023-10-10T06:27:05.272Z,13.79
2023-10-10T06:29:35.812Z,13.79
2023-10-10T06:32:12.100Z,13.80
2023-10-10T06:34:39.869Z,13.84
2023-10-10T06:37:09.550Z,13.86
2023-10-10T06:39:55.574Z,13.90
2023-10-10T06:42:28.830Z,13.93
2023-10-10T06:44:56.028Z,13.97
2023-10-10T06:47:23.025Z,13.97
2023-10-10T06:49:57.959Z,14.01
2023-10-10T06:52:29.127Z,14.05
2023-10-10T06:54:57.015Z,14.09
2023-10-10T06:57:38.704Z,14.12
2023-10-10T07:00:30.312Z,14.14
2023-10-10T07:02:58.773Z,14.19
2023-10-10T07:05:32.342Z,14.19
2023-10-10T07:08:13.920Z,14.21
2023-10-10T07:10:44.699Z,14.24
2023-10-10T07:13:15.155Z,14.29
2023-10-10T07:15:43.614Z,14.29
2023-10-10T07:18:15.722Z,14.31
2023-10-10T07:21:04.884Z,14.37
2023-10-10T07:23:39.386Z,14.41
2023-10-10T07:26:21.906Z,14.45
2023-10-10T07:28:49.644Z,14.55
2023-10-10T07:31:22.540Z,14.59
2023-10-10T07:34:17.006Z,14.65
2023-10-10T07:36:45.230Z,14.71
2023-10-10T07:39:31.179Z,14.77
2023-10-10T07:41:58.682Z,14.75
2023-10-10T07:44:27.271Z,14.88
2023-10-10T07:47:21.440Z,14.95
2023-10-10T07:49:52.482Z,15.02
2023-10-10T07:52:21.686Z,15.09
2023-10-10T07:54:55.847Z,15.16
2023-10-10T07:57:29.900Z,15.20
2023-10-10T08:00:00.011Z,15.26
2023-10-10T08:02:33.474Z,15.43
2023-10-10T08:05:11.121Z,15.51
2023-10-10T08:07:38.714Z,15.57
2023-10-10T08:10:15.727Z,15.65
2023-10-10T08:12:44.078Z,15.79
2023-10-10T08:15:21.133Z,15.83
2023-10-10T08:17:55.562Z,15.81
2023-10-10T08:20:36.987Z,15.83
2023-10-10T08:23:06.735Z,15.82
2023-10-10T08:25:34.614Z,15.84
2023-10-10T08:28:02.061Z,15.91
2023-10-10T08:30:29.060Z,15.99
2023-10-10T08:32:57.875Z,16.05
2023-10-10T08:35:27.379Z,16.12
2023-10-10T08:37:54.817Z,16.30
2023-10-10T08:40:21.744Z,16.47
2023-10-10T08:42:52.182Z,16.59
2023-10-10T08:45:26.567Z,16.72
2023-10-10T08:48:02.155Z,16.79
2023-10-10T08:50:29.774Z,16.87
2023-10-10T08:52:56.879Z,16.84
2023-10-10T08:55:27.665Z,16.83
2023-10-10T08:57:56.941Z,16.83
2023-10-10T09:00:28.406Z,16.87
2023-10-10T09:02:56.727Z,16.89
2023-10-10T09:05:25.948Z,16.97
2023-10-10T09:07:57.080Z,17.02
2023-10-10T09:10:29.693Z,17.16
2023-10-10T09:12:57.895Z,17.21
2023-10-10T09:15:26.438Z,17.32
2023-10-10T09:17:57.239Z,17.42
2023-10-10T09:20:30.196Z,17.51
2023-10-10T09:23:13.577Z,17.59
2023-10-10T09:25:44.133Z,17.70
2023-10-10T09:28:17.348Z,17.71
2023-10-10T09:30:51.762Z,17.83
2023-10-10T09:33:29.886Z,18.05
2023-10-10T09:36:11.049Z,18.13
2023-10-10T09:38:45.359Z,18.31
2023-10-10T09:41:34.753Z,18.53
2023-10-10T09:44:40.825Z,18.83
2023-10-10T09:47:09.370Z,19.06
2023-10-10T09:49:55.500Z,19.26
2023-10-10T09:52:42.811Z,19.38
2023-10-10T09:55:14.346Z,19.50
2023-10-10T09:58:17.583Z,19.67
2023-10-10T10:00:44.749Z,20.01
2023-10-10T10:03:29.224Z,20.56
2023-10-10T10:06:28.900Z,21.06
2023-10-10T10:09:34.230Z,21.57
2023-10-10T10:12:32.723Z,22.01
2023-10-10T10:15:16.991Z,22.00
2023-10-10T10:18:13.151Z,22.20
2023-10-10T10:20:59.664Z,22.97
2023-10-10T10:23:29.952Z,22.73
2023-10-10T10:26:17.333Z,22.72
2023-10-10T10:28:44.359Z,22.75
2023-10-10T10:31:29.817Z,23.09
2023-10-10T10:34:09.231Z,23.08
2023-10-10T10:36:46.518Z,23.72
2023-10-10T10:39:22.114Z,23.82
2023-10-10T10:41:55.400Z,23.94
2023-10-10T10:44:46.443Z,23.17
2023-10-10T10:47:36.731Z,23.45
2023-10-10T10:50:07.111Z,24.14
2023-10-10T10:52:45.529Z,24.22
2023-10-10T10:55:26.912Z,24.94
2023-10-10T10:58:21.794Z,24.74
2023-10-10T11:00:59.739Z,24.05
2023-10-10T11:03:37.237Z,23.87
2023-10-10T11:06:09.592Z,23.50
2023-10-10T11:09:00.815Z,22.60
2023-10-10T11:11:31.600Z,22.44
2023-10-10T11:14:20.640Z,22.25
2023-10-10T11:16:48.196Z,21.85
2023-10-10T11:19:21.088Z,21.46
2023-10-10T11:21:51.021Z,21.30
2023-10-10T11:24:27.498Z,21.22
2023-10-10T11:27:12.671Z,21.05
2023-10-10T11:29:47.175Z,21.41
2023-10-10T11:32:30.528Z,21.90
2023-10-10T11:35:19.218Z,21.99
2023-10-10T11:37:50.300Z,22.11
2023-10-10T11:40:32.493Z,22.36
2023-10-10T11:43:07.197Z,22.60
2023-10-10T11:45:42.940Z,22.58
2023-10-10T11:48:14.254Z,22.80
2023-10-10T11:50:58.272Z,23.15
2023-10-10T11:53:26.687Z,23.14
2023-10-10T11:55:56.023Z,23.10
2023-10-10T11:58:37.481Z,23.01
2023-10-10T12:01:09.454Z,23.11
2023-10-10T12:03:39.905Z,22.90
2023-10-10T12:06:15.990Z,22.79
2023-10-10T12:08:46.864Z,22.65
2023-10-10T12:11:17.286Z,22.84
2023-10-10T12:13:45.659Z,22.98
2023-10-10T12:16:13.047Z,23.03
2023-10-10T12:19:00.495Z,22.87
2023-10-10T12:21:27.722Z,22.74
2023-10-10T12:24:02.784Z,22.58
2023-10-10T12:26:37.870Z,22.42
2023-10-10T12:29:05.007Z,22.39
2023-10-10T12:31:35.488Z,23.18
2023-10-10T12:34:02.680Z,23.98
2023-10-10T12:36:34.332Z,24.42
2023-10-10T12:39:01.612Z,24.33
2023-10-10T12:41:29.511Z,24.33
2023-10-10T12:43:56.868Z,24.35
2023-10-10T12:46:23.975Z,24.73
2023-10-10T12:48:54.338Z,25.19
2023-10-10T12:51:25.683Z,25.21
2023-10-10T12:54:02.322Z,25.55
2023-10-10T12:56:29.981Z,24.79
2023-10-10T12:59:23.108Z,25.32
2023-10-10T13:01:57.134Z,25.32
2023-10-10T13:04:30.844Z,25.23
2023-10-10T13:07:04.880Z,25.31
2023-10-10T13:09:33.430Z,24.86
2023-10-10T13:12:05.157Z,24.13
2023-10-10T13:14:34.824Z,23.35
2023-10-10T13:17:22.154Z,22.83
2023-10-10T13:19:50.464Z,22.14
2023-10-10T13:22:22.594Z,21.77
2023-10-10T13:24:50.542Z,21.52
2023-10-10T13:27:19.489Z,21.41
2023-10-10T13:29:46.651Z,21.45
2023-10-10T13:32:13.818Z,21.66
2023-10-10T13:34:40.696Z,21.63
2023-10-10T13:37:09.240Z,21.53
2023-10-10T13:39:49.055Z,21.45
2023-10-10T13:42:16.288Z,21.28
2023-10-10T13:44:44.236Z,21.13
2023-10-10T13:47:11.824Z,20.93
2023-10-10T13:49:45.866Z,20.73
2023-10-10T13:52:14.701Z,20.76
2023-10-10T13:54:41.817Z,20.74
2023-10-10T13:57:09.245Z,20.70
2023-10-10T13:59:36.476Z,20.75
2023-10-10T14:02:06.009Z,20.86
2023-10-10T14:04:47.721Z,20.92
2023-10-10T14:07:18.453Z,20.94
2023-10-10T14:10:02.947Z,21.01
2023-10-10T14:12:34.147Z,21.03
2023-10-10T14:15:02.845Z,21.07
2023-10-10T14:17:31.150Z,21.18
2023-10-10T14:19:59.939Z,21.25
2023-10-10T14:22:28.169Z,21.31
2023-10-10T14:24:59.362Z,21.39
2023-10-10T14:27:27.860Z,21.53
2023-10-10T14:29:57.577Z,21.47
2023-10-10T14:32:38.626Z,21.53
2023-10-10T14:35:06.650Z,21.40
2023-10-10T14:37:49.925Z,21.39
2023-10-10T14:40:20.960Z,21.30
2023-10-10T14:42:48.241Z,21.18
2023-10-10T14:45:15.270Z,21.08
2023-10-10T14:47:45.326Z,21.08
2023-10-10T14:50:14.534Z,21.05
2023-10-10T14:52:48.776Z,21.03
2023-10-10T14:55:25.879Z,21.04
2023-10-10T14:57:59.433Z,20.89
2023-10-10T15:00:29.789Z,20.82
2023-10-10T15:02:57.570Z,20.81
2023-10-10T15:05:25.831Z,20.75
2023-10-10T15:07:54.037Z,20.69
2023-10-10T15:10:28.062Z,20.66
2023-10-10T15:12:55.767Z,20.56
2023-10-10T15:15:24.444Z,20.42
2023-10-10T15:17:52.616Z,20.34
2023-10-10T15:20:20.157Z,20.29
2023-10-10T15:22:47.391Z,20.30
2023-10-10T15:25:16.675Z,20.18
2023-10-10T15:27:43.908Z,20.17
2023-10-10T15:30:11.501Z,20.13
2023-10-10T15:32:47.871Z,20.11
2023-10-10T15:35:18.499Z,20.08
2023-10-10T15:37:46.008Z,20.02
2023-10-10T15:40:14.735Z,19.87
2023-10-10T15:42:41.893Z,19.75
2023-10-10T15:45:09.818Z,19.68
2023-10-10T15:47:37.149Z,19.63
2023-10-10T15:50:04.475Z,19.63
2023-10-10T15:52:35.321Z,19.60
2023-10-10T15:55:06.956Z,19.60
2023-10-10T15:57:37.231Z,19.57
2023-10-10T16:00:11.790Z,19.51
2023-10-10T16:02:41.339Z,19.45
2023-10-10T16:05:08.577Z,19.40
2023-10-10T16:07:35.561Z,19.35
2023-10-10T16:10:04.252Z,19.32
2023-10-10T16:12:31.617Z,19.24
2023-10-10T16:15:01.495Z,19.24
2023-10-10T16:17:29.953Z,19.22
2023-10-10T16:19:57.032Z,19.16
2023-10-10T16:22:24.064Z,19.07
2023-10-10T16:24:53.894Z,18.95
2023-10-10T16:27:23.055Z,18.88
2023-10-10T16:29:50.081Z,18.74
2023-10-10T16:32:19.756Z,18.67
2023-10-10T16:34:47.877Z,18.62
2023-10-10T16:37:17.664Z,18.53
2023-10-10T16:39:46.498Z,18.46
2023-10-10T16:42:15.364Z,18.43
2023-10-10T16:44:43.141Z,18.41
2023-10-10T16:47:10.921Z,18.36
2023-10-10T16:49:38.675Z,18.30
2023-10-10T16:52:07.400Z,18.30
2023-10-10T16:54:37.179Z,18.28
2023-10-10T16:57:05.765Z,18.20
2023-10-10T16:59:33.076Z,18.08
2023-10-10T17:02:00.771Z,18.09
2023-10-10T17:04:28.325Z,18.04
2023-10-10T17:06:55.635Z,17.98
2023-10-10T17:09:24.378Z,17.95
2023-10-10T17:11:54.337Z,17.82
2023-10-10T17:14:21.584Z,17.74
2023-10-10T17:16:48.516Z,17.68
2023-10-10T17:19:18.345Z,17.66
2023-10-10T17:21:48.969Z,17.61
2023-10-10T17:24:17.041Z,17.59
2023-10-10T17:26:45.338Z,17.52
2023-10-10T17:29:13.232Z,17.57
2023-10-10T17:31:43.603Z,17.56
2023-10-10T17:34:16.744Z,17.56
2023-10-10T17:36:44.805Z,17.57
2023-10-10T17:39:17.480Z,17.58
2023-10-10T17:41:49.461Z,17.62
2023-10-10T17:44:19.444Z,17.64
2023-10-10T17:46:48.205Z,17.60
2023-10-10T17:49:16.374Z,17.56
2023-10-10T17:51:46.129Z,17.52
2023-10-10T17:54:13.649Z,17.56
2023-10-10T17:56:41.114Z,17.51
2023-10-10T17:59:08.460Z,17.41
2023-10-10T18:01:35.651Z,17.35
2023-10-10T18:04:04.647Z,17.38
2023-10-10T18:06:36.299Z,17.34
2023-10-10T18:09:09.608Z,17.34
2023-10-10T18:11:38.201Z,17.25
2023-10-10T18:14:08.578Z,17.21
2023-10-10T18:16:36.529Z,17.14
2023-10-10T18:19:04.552Z,17.15
2023-10-10T18:21:33.420Z,17.12
2023-10-10T18:24:07.372Z,17.05
2023-10-10T18:26:39.065Z,17.02
2023-10-10T18:29:06.994Z,17.02
2023-10-10T18:31:39.227Z,17.08
2023-10-10T18:34:06.694Z,17.05
2023-10-10T18:36:40.630Z,17.04
2023-10-10T18:39:14.382Z,17.02
2023-10-10T18:41:46.042Z,16.98
2023-10-10T18:44:17.379Z,16.97
2023-10-10T18:46:44.974Z,16.96
2023-10-10T18:49:12.350Z,16.98
2023-10-10T18:51:39.287Z,16.92
2023-10-10T18:54:10.068Z,16.89
2023-10-10T18:56:39.149Z,16.84
2023-10-10T18:59:06.694Z,16.79
2023-10-10T19:01:35.881Z,16.66
2023-10-10T19:04:03.131Z,16.53
2023-10-10T19:06:30.108Z,16.42
2023-10-10T19:09:01.574Z,16.35
2023-10-10T19:11:28.819Z,16.32
2023-10-10T19:13:56.985Z,16.28
2023-10-10T19:16:24.365Z,16.27
2023-10-10T19:18:51.606Z,16.23
2023-10-10T19:21:19.391Z,16.18
2023-10-10T19:23:51.518Z,16.16
2023-10-10T19:26:19.068Z,16.18
2023-10-10T19:28:54.522Z,16.22
2023-10-10T19:31:23.538Z,16.13
2023-10-10T19:33:51.919Z,16.08
2023-10-10T19:36:21.381Z,16.05
2023-10-10T19:38:49.221Z,16.16
2023-10-10T19:41:19.291Z,16.38
2023-10-10T19:43:46.922Z,16.53
2023-10-10T19:46:14.169Z,16.60
2023-10-10T19:48:42.520Z,16.80
2023-10-10T19:51:19.888Z,16.85
2023-10-10T19:53:51.812Z,16.90
2023-10-10T19:56:19.591Z,16.92
2023-10-10T19:58:47.338Z,16.88
2023-10-10T20:01:15.410Z,16.97
2023-10-10T20:03:45.659Z,17.07
2023-10-10T20:06:22.275Z,17.08
2023-10-10T20:08:56.766Z,17.09
2023-10-10T20:11:25.372Z,17.09
2023-10-10T20:13:53.121Z,17.13
2023-10-10T20:16:22.919Z,17.16
2023-10-10T20:18:55.862Z,17.20
2023-10-10T20:21:25.633Z,17.22
2023-10-10T20:23:52.779Z,17.26
2023-10-10T20:26:20.821Z,17.31
2023-10-10T20:28:51.672Z,17.35
2023-10-10T20:31:19.570Z,17.41
2023-10-10T20:33:51.195Z,17.39
2023-10-10T20:36:18.671Z,17.34
2023-10-10T20:38:46.199Z,17.30
2023-10-10T20:41:15.583Z,17.23
2023-10-10T20:43:43.873Z,17.18
2023-10-10T20:46:13.330Z,17.12
2023-10-10T20:48:40.441Z,17.06
2023-10-10T20:51:15.009Z,17.07
2023-10-10T20:53:43.648Z,17.09
2023-10-10T20:56:10.855Z,17.11
2023-10-10T20:58:39.742Z,17.11
2023-10-10T21:01:10.878Z,17.10
2023-10-10T21:03:39.384Z,17.06
2023-10-10T21:06:06.657Z,17.05
2023-10-10T21:08:34.178Z,17.02
2023-10-10T21:11:08.391Z,17.05
2023-10-10T21:13:36.091Z,17.03
2023-10-10T21:16:03.078Z,17.01
2023-10-10T21:18:30.204Z,17.01
2023-10-10T21:21:04.048Z,17.04
2023-10-10T21:23:32.364Z,17.04
2023-10-10T21:25:59.446Z,17.03
2023-10-10T21:28:27.162Z,17.05
2023-10-10T21:30:54.296Z,17.03
2023-10-10T21:33:21.606Z,17.01
2023-10-10T21:35:51.066Z,17.07
2023-10-10T21:38:18.803Z,17.04
2023-10-10T21:40:45.800Z,17.01
2023-10-10T21:43:12.851Z,16.98
2023-10-10T21:45:40.484Z,16.97
2023-10-10T21:48:11.216Z,16.97
2023-10-10T21:50:42.538Z,16.98
2023-10-10T21:53:09.922Z,16.94
2023-10-10T21:55:41.978Z,16.94
2023-10-10T21:58:15.088Z,16.94
2023-10-10T22:00:42.330Z,16.97
2023-10-10T22:03:09.843Z,16.97
2023-10-10T22:05:38.530Z,16.93
2023-10-10T22:08:07.975Z,16.95
2023-10-10T22:10:36.887Z,16.91
2023-10-10T22:13:05.498Z,16.90
2023-10-10T22:15:36.542Z,16.89
2023-10-10T22:18:07.813Z,16.90
2023-10-10T22:20:35.568Z,16.93
2023-10-10T22:23:02.958Z,16.96
2023-10-10T22:25:33.431Z,16.94
2023-10-10T22:28:01.955Z,16.94
2023-10-10T22:30:34.045Z,16.89
2023-10-10T22:33:01.561Z,16.89
2023-10-10T22:35:30.202Z,16.89
2023-10-10T22:37:57.615Z,16.89
2023-10-10T22:40:28.380Z,16.87
2023-10-10T22:42:57.376Z,16.85
2023-10-10T22:45:24.909Z,16.86
2023-10-10T22:47:57.944Z,16.88
2023-10-10T22:50:31.784Z,16.85
2023-10-10T22:53:03.802Z,16.83
2023-10-10T22:55:35.071Z,16.78
2023-10-10T22:58:08.386Z,16.77
2023-10-10T23:00:40.172Z,16.77
2023-10-10T23:03:11.333Z,16.78
2023-10-10T23:05:46.081Z,16.74
2023-10-10T23:08:14.503Z,16.72
2023-10-10T23:10:41.684Z,16.72
2023-10-10T23:13:09.100Z,16.70
2023-10-10T23:15:39.066Z,16.67
2023-10-10T23:18:12.398Z,16.67
2023-10-10T23:20:42.664Z,16.67
2023-10-10T23:23:14.247Z,16.66
2023-10-10T23:25:41.423Z,16.71
2023-10-10T23:28:11.559Z,16.67
2023-10-10T23:30:40.760Z,16.66
2023-10-10T23:33:13.702Z,16.63
2023-10-10T23:35:41.820Z,16.64
2023-10-10T23:38:10.217Z,16.65
2023-10-10T23:40:45.890Z,16.68
2023-10-10T23:43:20.356Z,16.67
2023-10-10T23:45:56.156Z,16.64
2023-10-10T23:48:30.613Z,16.65
2023-10-10T23:50:58.891Z,16.60
2023-10-10T23:53:25.922Z,16.62
2023-10-10T23:55:56.437Z,16.58
2023-10-10T23:58:26.819Z,16.59
